sensor_id;sensor_type;location;lat;lon;timestamp;P1;durP1;ratioP1;P2;durP2;ratioP2
36715;SDS011;22699;51.034;3.730;2022-08-25T00:01:43;8.40;;;6.30;;
36715;SDS011;22699;51.034;3.730;2022-08-25T00:04:12;7.93;;;5.85;;
36715;SDS011;22699;51.034;3.730;2022-08-25T00:06:40;7.13;;;6.43;;
36715;SDS011;22699;51.034;3.730;2022-08-25T00:09:07;6.25;;;5.63;;
36715;SDS011;22699;51.034;3.730;2022-08-25T00:11:35;8.52;;;5.35;;
36715;SDS011;22699;51.034;3.730;2022-08-25T00:14:05;8.77;;;6.15;;
36715;SDS011;22699;51.034;3.730;2022-08-25T00:16:33;9.07;;;5.60;;
36715;SDS011;22699;51.034;3.730;2022-08-25T00:19:01;6.75;;;6.15;;
36715;SDS011;22699;51.034;3.730;2022-08-25T00:21:30;6.45;;;5.85;;
36715;SDS011;22699;51.034;3.730;2022-08-25T00:23:56;6.60;;;5.90;;
36715;SDS011;22699;51.034;3.730;2022-08-25T00:26:23;6.63;;;5.82;;
36715;SDS011;22699;51.034;3.730;2022-08-25T00:28:48;6.72;;;6.07;;
36715;SDS011;22699;51.034;3.730;2022-08-25T00:31:15;7.22;;;6.53;;
36715;SDS011;22699;51.034;3.730;2022-08-25T00:33:46;6.55;;;5.95;;
36715;SDS011;22699;51.034;3.730;2022-08-25T00:36:13;7.85;;;6.40;;
36715;SDS011;22699;51.034;3.730;2022-08-25T00:38:40;6.72;;;5.97;;
36715;SDS011;22699;51.034;3.730;2022-08-25T00:41:07;10.18;;;7.20;;
36715;SDS011;22699;51.034;3.730;2022-08-25T00:43:50;7.28;;;6.13;;
36715;SDS011;22699;51.034;3.730;2022-08-25T00:46:38;7.20;;;6.55;;
36715;SDS011;22699;51.034;3.730;2022-08-25T00:49:07;8.90;;;7.03;;
36715;SDS011;22699;51.034;3.730;2022-08-25T00:51:37;7.93;;;7.00;;
36715;SDS011;22699;51.034;3.730;2022-08-25T00:54:07;7.72;;;6.97;;
36715;SDS011;22699;51.034;3.730;2022-08-25T00:56:38;8.25;;;7.45;;
36715;SDS011;22699;51.034;3.730;2022-08-25T00:59:05;7.93;;;7.05;;
36715;SDS011;22699;51.034;3.730;2022-08-25T01:01:32;8.75;;;7.45;;
36715;SDS011;22699;51.034;3.730;2022-08-25T01:03:57;7.60;;;6.80;;
36715;SDS011;22699;51.034;3.730;2022-08-25T01:06:23;8.88;;;7.88;;
36715;SDS011;22699;51.034;3.730;2022-08-25T01:08:50;8.57;;;7.78;;
36715;SDS011;22699;51.034;3.730;2022-08-25T01:11:16;7.72;;;7.05;;
36715;SDS011;22699;51.034;3.730;2022-08-25T01:13:43;8.52;;;7.72;;
36715;SDS011;22699;51.034;3.730;2022-08-25T01:21:16;7.63;;;6.93;;
36715;SDS011;22699;51.034;3.730;2022-08-25T01:23:44;9.38;;;7.40;;
36715;SDS011;22699;51.034;3.730;2022-08-25T01:26:17;10.18;;;7.40;;
36715;SDS011;22699;51.034;3.730;2022-08-25T01:28:49;8.40;;;7.63;;
36715;SDS011;22699;51.034;3.730;2022-08-25T01:31:35;8.27;;;7.38;;
36715;SDS011;22699;51.034;3.730;2022-08-25T01:34:02;7.18;;;6.53;;
36715;SDS011;22699;51.034;3.730;2022-08-25T01:36:29;8.38;;;7.35;;
36715;SDS011;22699;51.034;3.730;2022-08-25T01:38:55;8.35;;;7.18;;
36715;SDS011;22699;51.034;3.730;2022-08-25T01:41:29;8.23;;;7.45;;
36715;SDS011;22699;51.034;3.730;2022-08-25T01:43:58;8.80;;;7.72;;
36715;SDS011;22699;51.034;3.730;2022-08-25T01:46:30;8.73;;;7.82;;
36715;SDS011;22699;51.034;3.730;2022-08-25T01:48:56;9.35;;;8.25;;
36715;SDS011;22699;51.034;3.730;2022-08-25T01:51:25;8.85;;;8.05;;
36715;SDS011;22699;51.034;3.730;2022-08-25T01:53:53;9.55;;;8.65;;
36715;SDS011;22699;51.034;3.730;2022-08-25T01:56:18;10.85;;;8.55;;
36715;SDS011;22699;51.034;3.730;2022-08-25T01:58:45;10.38;;;8.35;;
36715;SDS011;22699;51.034;3.730;2022-08-25T02:01:15;8.70;;;8.00;;
36715;SDS011;22699;51.034;3.730;2022-08-25T02:03:46;10.02;;;9.02;;
36715;SDS011;22699;51.034;3.730;2022-08-25T02:06:14;7.93;;;7.22;;
36715;SDS011;22699;51.034;3.730;2022-08-25T02:08:43;8.93;;;8.02;;
36715;SDS011;22699;51.034;3.730;2022-08-25T02:11:10;9.38;;;8.55;;
36715;SDS011;22699;51.034;3.730;2022-08-25T02:13:37;9.20;;;8.50;;
36715;SDS011;22699;51.034;3.730;2022-08-25T02:16:05;11.10;;;8.77;;
36715;SDS011;22699;51.034;3.730;2022-08-25T02:18:32;10.77;;;9.68;;
36715;SDS011;22699;51.034;3.730;2022-08-25T02:20:58;12.48;;;10.50;;
36715;SDS011;22699;51.034;3.730;2022-08-25T02:23:24;9.98;;;9.05;;
36715;SDS011;22699;51.034;3.730;2022-08-25T02:25:51;11.18;;;10.07;;
36715;SDS011;22699;51.034;3.730;2022-08-25T02:28:16;14.07;;;10.73;;
36715;SDS011;22699;51.034;3.730;2022-08-25T02:30:42;11.02;;;9.98;;
36715;SDS011;22699;51.034;3.730;2022-08-25T02:33:09;12.70;;;11.40;;
36715;SDS011;22699;51.034;3.730;2022-08-25T02:35:35;12.45;;;10.93;;
36715;SDS011;22699;51.034;3.730;2022-08-25T02:38:01;12.52;;;11.23;;
36715;SDS011;22699;51.034;3.730;2022-08-25T02:40:28;12.75;;;11.48;;
36715;SDS011;22699;51.034;3.730;2022-08-25T02:42:54;12.50;;;11.30;;
36715;SDS011;22699;51.034;3.730;2022-08-25T02:45:19;13.13;;;11.73;;
36715;SDS011;22699;51.034;3.730;2022-08-25T02:47:46;13.98;;;12.68;;
36715;SDS011;22699;51.034;3.730;2022-08-25T02:50:12;14.55;;;13.23;;
36715;SDS011;22699;51.034;3.730;2022-08-25T02:52:38;16.42;;;14.90;;
36715;SDS011;22699;51.034;3.730;2022-08-25T02:55:06;14.95;;;13.43;;
36715;SDS011;22699;51.034;3.730;2022-08-25T02:57:35;14.23;;;12.77;;
36715;SDS011;22699;51.034;3.730;2022-08-25T03:00:00;13.23;;;11.93;;
36715;SDS011;22699;51.034;3.730;2022-08-25T03:02:29;14.88;;;13.38;;
36715;SDS011;22699;51.034;3.730;2022-08-25T03:04:54;16.80;;;13.73;;
36715;SDS011;22699;51.034;3.730;2022-08-25T03:07:21;14.57;;;13.27;;
36715;SDS011;22699;51.034;3.730;2022-08-25T03:09:46;14.45;;;13.25;;
36715;SDS011;22699;51.034;3.730;2022-08-25T03:12:12;14.70;;;13.10;;
36715;SDS011;22699;51.034;3.730;2022-08-25T03:14:38;15.63;;;12.88;;
36715;SDS011;22699;51.034;3.730;2022-08-25T03:17:05;16.58;;;15.00;;
36715;SDS011;22699;51.034;3.730;2022-08-25T03:19:32;17.05;;;15.50;;
36715;SDS011;22699;51.034;3.730;2022-08-25T03:21:57;16.33;;;14.73;;
36715;SDS011;22699;51.034;3.730;2022-08-25T03:24:24;16.98;;;15.27;;
36715;SDS011;22699;51.034;3.730;2022-08-25T03:26:50;18.83;;;16.90;;
36715;SDS011;22699;51.034;3.730;2022-08-25T03:29:23;19.13;;;17.25;;
36715;SDS011;22699;51.034;3.730;2022-08-25T03:31:54;20.15;;;17.95;;
36715;SDS011;22699;51.034;3.730;2022-08-25T03:34:22;19.60;;;17.60;;
36715;SDS011;22699;51.034;3.730;2022-08-25T03:36:48;19.13;;;17.30;;
36715;SDS011;22699;51.034;3.730;2022-08-25T03:39:16;20.27;;;18.38;;
36715;SDS011;22699;51.034;3.730;2022-08-25T03:41:42;19.67;;;17.88;;
36715;SDS011;22699;51.034;3.730;2022-08-25T03:44:08;18.88;;;17.08;;
36715;SDS011;22699;51.034;3.730;2022-08-25T03:46:45;17.90;;;16.13;;
36715;SDS011;22699;51.034;3.730;2022-08-25T03:49:14;19.63;;;17.50;;
36715;SDS011;22699;51.034;3.730;2022-08-25T03:51:43;19.55;;;17.50;;
36715;SDS011;22699;51.034;3.730;2022-08-25T03:54:14;17.38;;;15.70;;
36715;SDS011;22699;51.034;3.730;2022-08-25T03:56:41;19.73;;;18.02;;
36715;SDS011;22699;51.034;3.730;2022-08-25T03:59:08;19.10;;;17.30;;
36715;SDS011;22699;51.034;3.730;2022-08-25T04:01:37;20.98;;;19.00;;
36715;SDS011;22699;51.034;3.730;2022-08-25T04:04:06;22.65;;;20.45;;
36715;SDS011;22699;51.034;3.730;2022-08-25T04:06:33;20.17;;;18.13;;
36715;SDS011;22699;51.034;3.730;2022-08-25T04:08:59;19.45;;;17.73;;
36715;SDS011;22699;51.034;3.730;2022-08-25T04:11:25;20.80;;;18.90;;
36715;SDS011;22699;51.034;3.730;2022-08-25T04:13:52;22.00;;;20.02;;
36715;SDS011;22699;51.034;3.730;2022-08-25T04:16:21;22.50;;;20.33;;
36715;SDS011;22699;51.034;3.730;2022-08-25T04:18:49;23.65;;;21.25;;
36715;SDS011;22699;51.034;3.730;2022-08-25T04:21:18;22.95;;;20.73;;
36715;SDS011;22699;51.034;3.730;2022-08-25T04:23:45;23.33;;;20.98;;
36715;SDS011;22699;51.034;3.730;2022-08-25T04:26:14;22.48;;;20.30;;
36715;SDS011;22699;51.034;3.730;2022-08-25T04:28:51;21.92;;;19.90;;
36715;SDS011;22699;51.034;3.730;2022-08-25T04:31:19;23.70;;;21.50;;
36715;SDS011;22699;51.034;3.730;2022-08-25T04:33:46;24.70;;;22.23;;
36715;SDS011;22699;51.034;3.730;2022-08-25T04:36:12;23.77;;;21.40;;
36715;SDS011;22699;51.034;3.730;2022-08-25T04:38:40;25.45;;;22.90;;
36715;SDS011;22699;51.034;3.730;2022-08-25T04:41:07;22.17;;;19.88;;
36715;SDS011;22699;51.034;3.730;2022-08-25T04:43:35;23.48;;;21.30;;
36715;SDS011;22699;51.034;3.730;2022-08-25T04:46:08;24.38;;;22.20;;
36715;SDS011;22699;51.034;3.730;2022-08-25T04:48:36;23.52;;;21.27;;
36715;SDS011;22699;51.034;3.730;2022-08-25T04:51:07;26.05;;;23.85;;
36715;SDS011;22699;51.034;3.730;2022-08-25T04:53:35;24.85;;;22.48;;
36715;SDS011;22699;51.034;3.730;2022-08-25T04:56:07;28.08;;;25.52;;
36715;SDS011;22699;51.034;3.730;2022-08-25T04:58:34;26.73;;;24.35;;
36715;SDS011;22699;51.034;3.730;2022-08-25T05:01:04;24.63;;;22.30;;
36715;SDS011;22699;51.034;3.730;2022-08-25T05:03:31;26.27;;;23.85;;
36715;SDS011;22699;51.034;3.730;2022-08-25T05:05:57;24.70;;;22.35;;
36715;SDS011;22699;51.034;3.730;2022-08-25T05:08:23;22.75;;;20.55;;
36715;SDS011;22699;51.034;3.730;2022-08-25T05:10:49;25.65;;;23.08;;
36715;SDS011;22699;51.034;3.730;2022-08-25T05:13:17;31.27;;;22.52;;
36715;SDS011;22699;51.034;3.730;2022-08-25T05:15:49;46.95;;;23.33;;
36715;SDS011;22699;51.034;3.730;2022-08-25T05:18:17;26.77;;;24.05;;
36715;SDS011;22699;51.034;3.730;2022-08-25T05:20:43;25.02;;;22.83;;
36715;SDS011;22699;51.034;3.730;2022-08-25T05:23:09;25.67;;;22.35;;
36715;SDS011;22699;51.034;3.730;2022-08-25T05:25:35;24.98;;;21.98;;
36715;SDS011;22699;51.034;3.730;2022-08-25T05:28:01;24.60;;;22.27;;
36715;SDS011;22699;51.034;3.730;2022-08-25T05:30:27;22.02;;;19.92;;
36715;SDS011;22699;51.034;3.730;2022-08-25T05:32:55;24.83;;;21.55;;
36715;SDS011;22699;51.034;3.730;2022-08-25T05:35:21;22.65;;;20.30;;
36715;SDS011;22699;51.034;3.730;2022-08-25T05:37:46;19.95;;;17.98;;
36715;SDS011;22699;51.034;3.730;2022-08-25T05:40:12;21.58;;;19.58;;
36715;SDS011;22699;51.034;3.730;2022-08-25T05:42:38;21.92;;;19.73;;
36715;SDS011;22699;51.034;3.730;2022-08-25T05:45:04;27.08;;;20.92;;
36715;SDS011;22699;51.034;3.730;2022-08-25T05:47:31;26.92;;;19.63;;
36715;SDS011;22699;51.034;3.730;2022-08-25T05:49:57;21.73;;;18.67;;
36715;SDS011;22699;51.034;3.730;2022-08-25T05:52:23;29.05;;;19.73;;
36715;SDS011;22699;51.034;3.730;2022-08-25T05:54:51;24.70;;;21.48;;
36715;SDS011;22699;51.034;3.730;2022-08-25T05:57:17;21.50;;;19.48;;
36715;SDS011;22699;51.034;3.730;2022-08-25T05:59:43;61.25;;;24.80;;
36715;SDS011;22699;51.034;3.730;2022-08-25T06:02:08;26.17;;;19.88;;
36715;SDS011;22699;51.034;3.730;2022-08-25T06:04:54;22.42;;;19.20;;
36715;SDS011;22699;51.034;3.730;2022-08-25T06:07:19;20.75;;;17.58;;
36715;SDS011;22699;51.034;3.730;2022-08-25T06:09:45;23.70;;;20.00;;
36715;SDS011;22699;51.034;3.730;2022-08-25T06:12:13;21.88;;;18.35;;
36715;SDS011;22699;51.034;3.730;2022-08-25T06:14:39;19.63;;;15.32;;
36715;SDS011;22699;51.034;3.730;2022-08-25T06:17:05;19.38;;;15.43;;
36715;SDS011;22699;51.034;3.730;2022-08-25T06:19:31;16.77;;;14.98;;
36715;SDS011;22699;51.034;3.730;2022-08-25T06:21:57;14.30;;;13.00;;
36715;SDS011;22699;51.034;3.730;2022-08-25T06:24:24;20.95;;;13.20;;
36715;SDS011;22699;51.034;3.730;2022-08-25T06:26:50;19.60;;;12.13;;
36715;SDS011;22699;51.034;3.730;2022-08-25T06:29:16;14.70;;;11.77;;
36715;SDS011;22699;51.034;3.730;2022-08-25T06:31:43;13.75;;;12.30;;
36715;SDS011;22699;51.034;3.730;2022-08-25T06:34:09;13.27;;;10.77;;
36715;SDS011;22699;51.034;3.730;2022-08-25T06:36:36;18.50;;;11.25;;
36715;SDS011;22699;51.034;3.730;2022-08-25T06:39:01;18.67;;;11.10;;
36715;SDS011;22699;51.034;3.730;2022-08-25T06:41:27;22.80;;;11.68;;
36715;SDS011;22699;51.034;3.730;2022-08-25T06:43:54;14.90;;;9.75;;
36715;SDS011;22699;51.034;3.730;2022-08-25T06:46:21;14.30;;;9.85;;
36715;SDS011;22699;51.034;3.730;2022-08-25T06:48:50;14.80;;;8.65;;
36715;SDS011;22699;51.034;3.730;2022-08-25T06:51:17;13.02;;;9.73;;
36715;SDS011;22699;51.034;3.730;2022-08-25T06:53:45;14.90;;;9.52;;
36715;SDS011;22699;51.034;3.730;2022-08-25T06:56:13;11.93;;;9.07;;
36715;SDS011;22699;51.034;3.730;2022-08-25T06:58:40;10.20;;;8.45;;
36715;SDS011;22699;51.034;3.730;2022-08-25T07:01:09;12.15;;;8.25;;
36715;SDS011;22699;51.034;3.730;2022-08-25T07:03:40;13.85;;;8.38;;
36715;SDS011;22699;51.034;3.730;2022-08-25T07:06:06;9.90;;;7.47;;
36715;SDS011;22699;51.034;3.730;2022-08-25T07:08:32;9.23;;;6.75;;
36715;SDS011;22699;51.034;3.730;2022-08-25T07:11:03;8.18;;;5.47;;
36715;SDS011;22699;51.034;3.730;2022-08-25T07:13:30;9.43;;;6.10;;
36715;SDS011;22699;51.034;3.730;2022-08-25T07:15:56;7.38;;;6.20;;
36715;SDS011;22699;51.034;3.730;2022-08-25T07:18:22;11.65;;;6.57;;
36715;SDS011;22699;51.034;3.730;2022-08-25T07:20:48;11.02;;;5.97;;
36715;SDS011;22699;51.034;3.730;2022-08-25T07:23:16;16.20;;;5.00;;
36715;SDS011;22699;51.034;3.730;2022-08-25T07:25:42;9.38;;;4.82;;
36715;SDS011;22699;51.034;3.730;2022-08-25T07:28:07;7.88;;;4.57;;
36715;SDS011;22699;51.034;3.730;2022-08-25T07:30:33;8.98;;;3.90;;
36715;SDS011;22699;51.034;3.730;2022-08-25T07:32:58;8.90;;;3.72;;
36715;SDS011;22699;51.034;3.730;2022-08-25T07:35:24;8.20;;;3.95;;
36715;SDS011;22699;51.034;3.730;2022-08-25T07:37:52;6.22;;;3.30;;
36715;SDS011;22699;51.034;3.730;2022-08-25T07:40:28;7.20;;;3.90;;
36715;SDS011;22699;51.034;3.730;2022-08-25T07:42:59;4.95;;;2.92;;
36715;SDS011;22699;51.034;3.730;2022-08-25T07:45:30;6.55;;;2.60;;
36715;SDS011;22699;51.034;3.730;2022-08-25T07:48:01;12.57;;;3.60;;
36715;SDS011;22699;51.034;3.730;2022-08-25T07:50:29;11.38;;;3.35;;
36715;SDS011;22699;51.034;3.730;2022-08-25T07:52:56;6.03;;;2.42;;
36715;SDS011;22699;51.034;3.730;2022-08-25T07:55:23;8.52;;;2.97;;
36715;SDS011;22699;51.034;3.730;2022-08-25T07:57:51;8.03;;;3.33;;
36715;SDS011;22699;51.034;3.730;2022-08-25T08:00:18;7.45;;;2.55;;
36715;SDS011;22699;51.034;3.730;2022-08-25T08:02:44;7.00;;;2.20;;
36715;SDS011;22699;51.034;3.730;2022-08-25T08:05:10;7.10;;;2.30;;
36715;SDS011;22699;51.034;3.730;2022-08-25T08:07:37;7.70;;;2.80;;
36715;SDS011;22699;51.034;3.730;2022-08-25T08:10:04;4.05;;;2.10;;
36715;SDS011;22699;51.034;3.730;2022-08-25T08:12:32;7.97;;;2.72;;
36715;SDS011;22699;51.034;3.730;2022-08-25T08:14:58;9.40;;;2.50;;
36715;SDS011;22699;51.034;3.730;2022-08-25T08:17:24;11.43;;;2.50;;
36715;SDS011;22699;51.034;3.730;2022-08-25T08:19:49;4.10;;;1.88;;
36715;SDS011;22699;51.034;3.730;2022-08-25T08:22:16;4.90;;;2.00;;
36715;SDS011;22699;51.034;3.730;2022-08-25T08:24:42;4.70;;;1.80;;
36715;SDS011;22699;51.034;3.730;2022-08-25T08:27:09;9.50;;;2.17;;
36715;SDS011;22699;51.034;3.730;2022-08-25T08:29:36;5.28;;;1.80;;
36715;SDS011;22699;51.034;3.730;2022-08-25T08:32:04;8.55;;;1.77;;
36715;SDS011;22699;51.034;3.730;2022-08-25T08:34:32;10.52;;;2.40;;
36715;SDS011;22699;51.034;3.730;2022-08-25T08:36:57;5.97;;;1.77;;
36715;SDS011;22699;51.034;3.730;2022-08-25T08:39:24;6.22;;;1.80;;
36715;SDS011;22699;51.034;3.730;2022-08-25T08:42:02;3.58;;;1.48;;
36715;SDS011;22699;51.034;3.730;2022-08-25T08:57:48;5.45;;;1.98;;
36715;SDS011;22699;51.034;3.730;2022-08-25T09:00:16;6.97;;;1.58;;
36715;SDS011;22699;51.034;3.730;2022-08-25T09:05:29;5.15;;;2.50;;
36715;SDS011;22699;51.034;3.730;2022-08-25T09:08:00;7.03;;;2.25;;
36715;SDS011;22699;51.034;3.730;2022-08-25T09:10:37;6.93;;;1.67;;
36715;SDS011;22699;51.034;3.730;2022-08-25T09:13:19;2.90;;;1.58;;
36715;SDS011;22699;51.034;3.730;2022-08-25T09:19:30;6.95;;;1.70;;
36715;SDS011;22699;51.034;3.730;2022-08-25T09:22:37;7.28;;;1.90;;
36715;SDS011;22699;51.034;3.730;2022-08-25T09:30:53;3.25;;;1.50;;
36715;SDS011;22699;51.034;3.730;2022-08-25T09:33:28;6.35;;;1.90;;
36715;SDS011;22699;51.034;3.730;2022-08-25T09:35:55;6.88;;;2.58;;
36715;SDS011;22699;51.034;3.730;2022-08-25T09:38:21;2.67;;;1.23;;
36715;SDS011;22699;51.034;3.730;2022-08-25T09:40:48;3.85;;;1.45;;
36715;SDS011;22699;51.034;3.730;2022-08-25T09:43:24;8.35;;;1.70;;
36715;SDS011;22699;51.034;3.730;2022-08-25T09:53:38;3.53;;;1.50;;
36715;SDS011;22699;51.034;3.730;2022-08-25T09:56:14;4.30;;;1.55;;
36715;SDS011;22699;51.034;3.730;2022-08-25T09:58:45;6.97;;;1.60;;
36715;SDS011;22699;51.034;3.730;2022-08-25T10:01:14;4.15;;;1.30;;
36715;SDS011;22699;51.034;3.730;2022-08-25T10:04:03;3.38;;;1.23;;
36715;SDS011;22699;51.034;3.730;2022-08-25T10:06:33;5.55;;;1.40;;
36715;SDS011;22699;51.034;3.730;2022-08-25T10:09:06;2.88;;;1.27;;
36715;SDS011;22699;51.034;3.730;2022-08-25T10:14:16;4.75;;;1.58;;
36715;SDS011;22699;51.034;3.730;2022-08-25T10:16:42;5.15;;;1.52;;
36715;SDS011;22699;51.034;3.730;2022-08-25T10:22:00;3.50;;;1.75;;
36715;SDS011;22699;51.034;3.730;2022-08-25T10:24:29;2.05;;;1.08;;
36715;SDS011;22699;51.034;3.730;2022-08-25T10:35:44;4.45;;;1.40;;
36715;SDS011;22699;51.034;3.730;2022-08-25T10:38:38;4.63;;;1.40;;
36715;SDS011;22699;51.034;3.730;2022-08-25T10:40:59;3.90;;;1.50;;
36715;SDS011;22699;51.034;3.730;2022-08-25T10:51:39;5.05;;;1.42;;
36715;SDS011;22699;51.034;3.730;2022-08-25T10:56:45;4.40;;;1.65;;
36715;SDS011;22699;51.034;3.730;2022-08-25T11:04:58;2.45;;;1.40;;
36715;SDS011;22699;51.034;3.730;2022-08-25T11:07:32;2.67;;;1.35;;
36715;SDS011;22699;51.034;3.730;2022-08-25T11:10:21;8.00;;;1.95;;
36715;SDS011;22699;51.034;3.730;2022-08-25T11:12:56;6.35;;;2.08;;
36715;SDS011;22699;51.034;3.730;2022-08-25T11:15:26;3.97;;;2.42;;
36715;SDS011;22699;51.034;3.730;2022-08-25T11:17:58;11.25;;;2.80;;
36715;SDS011;22699;51.034;3.730;2022-08-25T11:20:31;8.30;;;2.70;;
36715;SDS011;22699;51.034;3.730;2022-08-25T11:23:07;7.90;;;2.70;;
36715;SDS011;22699;51.034;3.730;2022-08-25T11:25:44;5.38;;;2.35;;
36715;SDS011;22699;51.034;3.730;2022-08-25T11:28:39;6.93;;;2.70;;
36715;SDS011;22699;51.034;3.730;2022-08-25T11:31:09;3.42;;;1.95;;
36715;SDS011;22699;51.034;3.730;2022-08-25T11:33:35;5.85;;;2.65;;
36715;SDS011;22699;51.034;3.730;2022-08-25T11:36:16;7.35;;;2.67;;
36715;SDS011;22699;51.034;3.730;2022-08-25T11:38:56;4.70;;;2.22;;
36715;SDS011;22699;51.034;3.730;2022-08-25T11:44:06;11.35;;;3.53;;
36715;SDS011;22699;51.034;3.730;2022-08-25T11:46:56;7.80;;;2.88;;
36715;SDS011;22699;51.034;3.730;2022-08-25T12:00:58;6.70;;;2.78;;
36715;SDS011;22699;51.034;3.730;2022-08-25T12:30:09;14.88;;;6.68;;
36715;SDS011;22699;51.034;3.730;2022-08-25T12:35:28;14.30;;;5.50;;
36715;SDS011;22699;51.034;3.730;2022-08-25T12:38:08;10.25;;;4.57;;
36715;SDS011;22699;51.034;3.730;2022-08-25T12:43:20;9.07;;;6.18;;
36715;SDS011;22699;51.034;3.730;2022-08-25T12:45:54;10.15;;;6.65;;
36715;SDS011;22699;51.034;3.730;2022-08-25T12:48:55;15.10;;;8.50;;
36715;SDS011;22699;51.034;3.730;2022-08-25T12:57:22;19.55;;;7.95;;
36715;SDS011;22699;51.034;3.730;2022-08-25T12:59:55;10.65;;;7.10;;
36715;SDS011;22699;51.034;3.730;2022-08-25T13:02:34;11.85;;;8.02;;
36715;SDS011;22699;51.034;3.730;2022-08-25T13:16:23;8.13;;;6.30;;
36715;SDS011;22699;51.034;3.730;2022-08-25T13:18:51;15.38;;;6.68;;
36715;SDS011;22699;51.034;3.730;2022-08-25T13:23:54;8.18;;;6.43;;
36715;SDS011;22699;51.034;3.730;2022-08-25T13:26:23;13.00;;;7.60;;
36715;SDS011;22699;51.034;3.730;2022-08-25T13:31:31;7.40;;;5.78;;
36715;SDS011;22699;51.034;3.730;2022-08-25T13:33:58;12.98;;;8.52;;
36715;SDS011;22699;51.034;3.730;2022-08-25T13:36:30;18.55;;;12.15;;
36715;SDS011;22699;51.034;3.730;2022-08-25T13:39:17;17.25;;;13.85;;
36715;SDS011;22699;51.034;3.730;2022-08-25T13:41:49;13.52;;;11.38;;
36715;SDS011;22699;51.034;3.730;2022-08-25T13:44:17;12.27;;;10.95;;
36715;SDS011;22699;51.034;3.730;2022-08-25T13:46:46;14.70;;;11.70;;
36715;SDS011;22699;51.034;3.730;2022-08-25T13:49:23;14.63;;;13.13;;
36715;SDS011;22699;51.034;3.730;2022-08-25T13:51:52;16.10;;;11.77;;
36715;SDS011;22699;51.034;3.730;2022-08-25T13:54:37;19.15;;;13.60;;
36715;SDS011;22699;51.034;3.730;2022-08-25T13:59:40;19.48;;;16.48;;
36715;SDS011;22699;51.034;3.730;2022-08-25T14:02:08;18.67;;;14.02;;
36715;SDS011;22699;51.034;3.730;2022-08-25T14:07:22;20.67;;;18.60;;
36715;SDS011;22699;51.034;3.730;2022-08-25T14:15:06;22.02;;;18.63;;
36715;SDS011;22699;51.034;3.730;2022-08-25T14:17:45;28.50;;;22.92;;
36715;SDS011;22699;51.034;3.730;2022-08-25T14:20:25;26.02;;;22.67;;
36715;SDS011;22699;51.034;3.730;2022-08-25T14:22:56;24.88;;;21.45;;
36715;SDS011;22699;51.034;3.730;2022-08-25T14:25:27;29.35;;;21.92;;
36715;SDS011;22699;51.034;3.730;2022-08-25T14:27:58;22.52;;;19.73;;
36715;SDS011;22699;51.034;3.730;2022-08-25T14:30:28;21.92;;;18.38;;
36715;SDS011;22699;51.034;3.730;2022-08-25T14:32:55;16.45;;;14.73;;
36715;SDS011;22699;51.034;3.730;2022-08-25T14:35:22;20.73;;;14.88;;
36715;SDS011;22699;51.034;3.730;2022-08-25T14:37:48;22.00;;;15.25;;
36715;SDS011;22699;51.034;3.730;2022-08-25T14:40:14;18.38;;;12.85;;
36715;SDS011;22699;51.034;3.730;2022-08-25T14:42:43;16.55;;;11.80;;
36715;SDS011;22699;51.034;3.730;2022-08-25T14:45:16;21.23;;;12.63;;
36715;SDS011;22699;51.034;3.730;2022-08-25T14:47:42;18.40;;;12.75;;
36715;SDS011;22699;51.034;3.730;2022-08-25T14:50:10;21.45;;;13.10;;
36715;SDS011;22699;51.034;3.730;2022-08-25T14:52:39;15.93;;;12.38;;
36715;SDS011;22699;51.034;3.730;2022-08-25T14:55:05;18.73;;;12.35;;
36715;SDS011;22699;51.034;3.730;2022-08-25T14:57:31;18.70;;;11.23;;
36715;SDS011;22699;51.034;3.730;2022-08-25T14:59:57;16.10;;;8.98;;
36715;SDS011;22699;51.034;3.730;2022-08-25T15:02:24;15.20;;;8.45;;
36715;SDS011;22699;51.034;3.730;2022-08-25T15:04:51;16.75;;;8.65;;
36715;SDS011;22699;51.034;3.730;2022-08-25T15:07:20;14.63;;;7.30;;
36715;SDS011;22699;51.034;3.730;2022-08-25T15:10:04;13.00;;;8.57;;
36715;SDS011;22699;51.034;3.730;2022-08-25T15:12:31;15.77;;;7.18;;
36715;SDS011;22699;51.034;3.730;2022-08-25T15:14:57;20.10;;;8.10;;
36715;SDS011;22699;51.034;3.730;2022-08-25T15:17:23;14.00;;;7.95;;
36715;SDS011;22699;51.034;3.730;2022-08-25T15:19:48;15.57;;;7.53;;
36715;SDS011;22699;51.034;3.730;2022-08-25T15:22:15;20.63;;;8.40;;
36715;SDS011;22699;51.034;3.730;2022-08-25T15:24:41;15.43;;;7.43;;
36715;SDS011;22699;51.034;3.730;2022-08-25T15:27:06;15.90;;;7.97;;
36715;SDS011;22699;51.034;3.730;2022-08-25T15:29:33;20.58;;;8.48;;
36715;SDS011;22699;51.034;3.730;2022-08-25T15:32:00;14.75;;;7.60;;
36715;SDS011;22699;51.034;3.730;2022-08-25T15:34:28;14.35;;;8.05;;
36715;SDS011;22699;51.034;3.730;2022-08-25T15:36:55;17.60;;;8.10;;
36715;SDS011;22699;51.034;3.730;2022-08-25T15:39:22;18.83;;;7.80;;
36715;SDS011;22699;51.034;3.730;2022-08-25T15:41:47;16.55;;;7.88;;
36715;SDS011;22699;51.034;3.730;2022-08-25T15:44:16;19.23;;;10.48;;
36715;SDS011;22699;51.034;3.730;2022-08-25T15:46:43;13.32;;;8.00;;
36715;SDS011;22699;51.034;3.730;2022-08-25T15:49:08;14.40;;;7.97;;
36715;SDS011;22699;51.034;3.730;2022-08-25T15:51:34;14.77;;;8.50;;
36715;SDS011;22699;51.034;3.730;2022-08-25T15:54:00;18.02;;;9.02;;
36715;SDS011;22699;51.034;3.730;2022-08-25T15:56:26;15.85;;;8.10;;
36715;SDS011;22699;51.034;3.730;2022-08-25T15:58:52;20.33;;;12.20;;
36715;SDS011;22699;51.034;3.730;2022-08-25T16:01:20;24.63;;;13.10;;
36715;SDS011;22699;51.034;3.730;2022-08-25T16:03:47;14.07;;;10.73;;
36715;SDS011;22699;51.034;3.730;2022-08-25T16:06:13;19.63;;;10.32;;
36715;SDS011;22699;51.034;3.730;2022-08-25T16:08:39;23.13;;;11.98;;
36715;SDS011;22699;51.034;3.730;2022-08-25T16:11:05;19.33;;;9.82;;
36715;SDS011;22699;51.034;3.730;2022-08-25T16:13:39;19.23;;;10.15;;
36715;SDS011;22699;51.034;3.730;2022-08-25T16:16:05;20.80;;;9.88;;
36715;SDS011;22699;51.034;3.730;2022-08-25T16:18:31;19.58;;;10.25;;
36715;SDS011;22699;51.034;3.730;2022-08-25T16:20:56;17.85;;;11.55;;
36715;SDS011;22699;51.034;3.730;2022-08-25T16:23:22;18.88;;;11.43;;
36715;SDS011;22699;51.034;3.730;2022-08-25T16:25:47;16.35;;;8.70;;
36715;SDS011;22699;51.034;3.730;2022-08-25T16:28:14;21.75;;;10.27;;
36715;SDS011;22699;51.034;3.730;2022-08-25T16:30:44;15.23;;;8.00;;
36715;SDS011;22699;51.034;3.730;2022-08-25T16:33:11;18.67;;;8.63;;
36715;SDS011;22699;51.034;3.730;2022-08-25T16:35:37;19.08;;;8.13;;
36715;SDS011;22699;51.034;3.730;2022-08-25T16:38:02;16.23;;;7.13;;
36715;SDS011;22699;51.034;3.730;2022-08-25T16:40:29;15.57;;;7.78;;
36715;SDS011;22699;51.034;3.730;2022-08-25T16:42:55;14.32;;;6.80;;
36715;SDS011;22699;51.034;3.730;2022-08-25T16:45:21;17.40;;;6.43;;
36715;SDS011;22699;51.034;3.730;2022-08-25T16:47:48;14.57;;;5.93;;
36715;SDS011;22699;51.034;3.730;2022-08-25T16:50:14;18.63;;;5.43;;
36715;SDS011;22699;51.034;3.730;2022-08-25T16:52:40;16.38;;;5.80;;
36715;SDS011;22699;51.034;3.730;2022-08-25T16:55:25;13.68;;;5.47;;
36715;SDS011;22699;51.034;3.730;2022-08-25T16:57:52;9.23;;;4.75;;
36715;SDS011;22699;51.034;3.730;2022-08-25T17:00:20;10.70;;;5.18;;
36715;SDS011;22699;51.034;3.730;2022-08-25T17:02:48;14.45;;;5.20;;
36715;SDS011;22699;51.034;3.730;2022-08-25T17:05:16;18.85;;;4.75;;
36715;SDS011;22699;51.034;3.730;2022-08-25T17:07:42;12.88;;;4.38;;
36715;SDS011;22699;51.034;3.730;2022-08-25T17:10:28;12.35;;;4.20;;
36715;SDS011;22699;51.034;3.730;2022-08-25T17:12:54;12.70;;;4.13;;